CEB557 RPLL-RPVM
Flight info
| Callsign | CEB557 |
|---|---|
| Flight time | 0h 57m |
| Altitude | 37000 |
| Route | IPATA4V IPATA W25 BATAY BATAY3P |
| Aircraft | A320/M-SDE3FGHIRWY/LB1 |
Departure
| Time | 2026-05-07 06:11 |
|---|---|
| Airport | Ninoy Aquino International Airport (RPLL) |
Arrival
| Time | 2026-05-07 07:08 |
|---|---|
| Airport | Mactan Cebu International Airport (RPVM) |
| Time | Latitude | Longitude | Altitude | Speed | Heading |
|---|---|---|---|---|---|
| 2026-05-07 05:48 | 14.52361 | 121.00807 | 69 ft | 0 kts | 44° |
| 2026-05-07 06:03 | 14.52354 | 121.00800 | 69 ft | 2 kts | 44° |
| 2026-05-07 06:03 | 14.52342 | 121.00788 | 69 ft | 2 kts | 43° |
| 2026-05-07 06:03 | 14.52330 | 121.00777 | 59 ft | 2 kts | 42° |
| 2026-05-07 06:04 | 14.52318 | 121.00766 | 79 ft | 2 kts | 40° |
| 2026-05-07 06:04 | 14.52305 | 121.00755 | 48 ft | 2 kts | 35° |
| 2026-05-07 06:04 | 14.52291 | 121.00746 | 61 ft | 2 kts | 20° |
| 2026-05-07 06:04 | 14.52275 | 121.00746 | 63 ft | 2 kts | 319° |
| 2026-05-07 06:05 | 14.52263 | 121.00758 | 62 ft | 2 kts | 315° |
| 2026-05-07 06:05 | 14.52259 | 121.00762 | 60 ft | 0 kts | 315° |
| 2026-05-07 06:08 | 14.52264 | 121.00757 | 69 ft | 4 kts | 315° |
| 2026-05-07 06:08 | 14.52283 | 121.00737 | 69 ft | 8 kts | 315° |
| 2026-05-07 06:08 | 14.52333 | 121.00686 | 69 ft | 12 kts | 315° |
| 2026-05-07 06:09 | 14.52401 | 121.00617 | 69 ft | 16 kts | 316° |
| 2026-05-07 06:09 | 14.52472 | 121.00543 | 66 ft | 11 kts | 316° |
| 2026-05-07 06:09 | 14.52486 | 121.00493 | 66 ft | 8 kts | 233° |
| 2026-05-07 06:09 | 14.52438 | 121.00441 | 65 ft | 11 kts | 226° |
| 2026-05-07 06:10 | 14.52373 | 121.00396 | 60 ft | 13 kts | 171° |
| 2026-05-07 06:10 | 14.52348 | 121.00415 | 68 ft | 0 kts | 135° |
| 2026-05-07 06:10 | 14.52346 | 121.00418 | 68 ft | 4 kts | 135° |
| 2026-05-07 06:11 | 14.52194 | 121.00575 | 61 ft | 65 kts | 134° |
| 2026-05-07 06:11 | 14.51734 | 121.01055 | 69 ft | 121 kts | 135° |
| 2026-05-07 06:11 | 14.51048 | 121.01760 | 284 ft | 145 kts | 135° |
| 2026-05-07 06:11 | 14.50323 | 121.02466 | 883 ft | 145 kts | 135° |
| 2026-05-07 06:12 | 14.49581 | 121.03225 | 1358 ft | 155 kts | 133° |
| 2026-05-07 06:12 | 14.48823 | 121.04016 | 1990 ft | 154 kts | 132° |
| 2026-05-07 06:12 | 14.48071 | 121.04803 | 2625 ft | 154 kts | 130° |
| 2026-05-07 06:12 | 14.47324 | 121.05584 | 3204 ft | 153 kts | 130° |
| 2026-05-07 06:13 | 14.46543 | 121.06400 | 3590 ft | 167 kts | 131° |
| 2026-05-07 06:13 | 14.45688 | 121.07292 | 3919 ft | 183 kts | 131° |
| 2026-05-07 06:13 | 14.44748 | 121.08272 | 4234 ft | 201 kts | 131° |
| 2026-05-07 06:13 | 14.43732 | 121.09358 | 4574 ft | 219 kts | 125° |
| 2026-05-07 06:14 | 14.43043 | 121.10786 | 5029 ft | 230 kts | 101° |
| 2026-05-07 06:14 | 14.42742 | 121.12458 | 5495 ft | 246 kts | 99° |
| 2026-05-07 06:14 | 14.42428 | 121.14245 | 5982 ft | 263 kts | 100° |
| 2026-05-07 06:14 | 14.42085 | 121.16136 | 6681 ft | 271 kts | 100° |
| 2026-05-07 06:15 | 14.41732 | 121.18061 | 7425 ft | 275 kts | 100° |
| 2026-05-07 06:15 | 14.41375 | 121.20014 | 8155 ft | 279 kts | 100° |
| 2026-05-07 06:15 | 14.40998 | 121.21994 | 8890 ft | 283 kts | 104° |
| 2026-05-07 06:15 | 14.40261 | 121.23890 | 9625 ft | 288 kts | 119° |
| 2026-05-07 06:16 | 14.39075 | 121.25577 | 10238 ft | 295 kts | 128° |
| 2026-05-07 06:16 | 14.37766 | 121.27265 | 10576 ft | 311 kts | 127° |
| 2026-05-07 06:16 | 14.36375 | 121.29067 | 10871 ft | 328 kts | 127° |
| 2026-05-07 06:16 | 14.34923 | 121.30947 | 11269 ft | 340 kts | 127° |
| 2026-05-07 06:17 | 14.33437 | 121.32867 | 11863 ft | 344 kts | 127° |
| 2026-05-07 06:17 | 14.31939 | 121.34808 | 12495 ft | 348 kts | 128° |
| 2026-05-07 06:17 | 14.30429 | 121.36770 | 13135 ft | 351 kts | 127° |
| 2026-05-07 06:17 | 14.28926 | 121.38726 | 13736 ft | 354 kts | 128° |
| 2026-05-07 06:18 | 14.27388 | 121.40723 | 14285 ft | 357 kts | 128° |
| 2026-05-07 06:18 | 14.25838 | 121.42734 | 14842 ft | 360 kts | 127° |
| 2026-05-07 06:18 | 14.24273 | 121.44765 | 15401 ft | 363 kts | 127° |
| 2026-05-07 06:18 | 14.22698 | 121.46809 | 15946 ft | 366 kts | 127° |
| 2026-05-07 06:19 | 14.21111 | 121.48868 | 16485 ft | 368 kts | 127° |
| 2026-05-07 06:19 | 14.19513 | 121.50940 | 17025 ft | 371 kts | 127° |
| 2026-05-07 06:19 | 14.17900 | 121.53029 | 17551 ft | 373 kts | 127° |
| 2026-05-07 06:19 | 14.16277 | 121.55129 | 18089 ft | 376 kts | 127° |
| 2026-05-07 06:20 | 14.14641 | 121.57245 | 18535 ft | 379 kts | 127° |
| 2026-05-07 06:20 | 14.12993 | 121.59380 | 18965 ft | 382 kts | 127° |
| 2026-05-07 06:20 | 14.11338 | 121.61524 | 19401 ft | 385 kts | 127° |
| 2026-05-07 06:20 | 14.09588 | 121.63623 | 19830 ft | 388 kts | 134° |
| 2026-05-07 06:21 | 14.07496 | 121.65403 | 20272 ft | 392 kts | 142° |
| 2026-05-07 06:21 | 14.05288 | 121.67076 | 20700 ft | 396 kts | 142° |
| 2026-05-07 06:21 | 14.03062 | 121.68769 | 21121 ft | 399 kts | 142° |
| 2026-05-07 06:21 | 14.00823 | 121.70475 | 21551 ft | 402 kts | 142° |
| 2026-05-07 06:22 | 13.98563 | 121.72199 | 21973 ft | 405 kts | 142° |
| 2026-05-07 06:22 | 13.94001 | 121.75686 | 22817 ft | 411 kts | 142° |
| 2026-05-07 06:22 | 13.91696 | 121.77447 | 23218 ft | 414 kts | 142° |
| 2026-05-07 06:23 | 13.89369 | 121.79222 | 23585 ft | 417 kts | 142° |
| 2026-05-07 06:23 | 13.87031 | 121.81003 | 23912 ft | 420 kts | 142° |
| 2026-05-07 06:23 | 13.84676 | 121.82792 | 24246 ft | 422 kts | 142° |
| 2026-05-07 06:23 | 13.82307 | 121.84583 | 24587 ft | 424 kts | 142° |
| 2026-05-07 06:24 | 13.79924 | 121.86381 | 24910 ft | 426 kts | 143° |
| 2026-05-07 06:24 | 13.77530 | 121.88184 | 25220 ft | 428 kts | 143° |
| 2026-05-07 06:24 | 13.75122 | 121.89997 | 25545 ft | 430 kts | 143° |
| 2026-05-07 06:24 | 13.72704 | 121.91818 | 25868 ft | 432 kts | 143° |
| 2026-05-07 06:25 | 13.70279 | 121.93647 | 26170 ft | 433 kts | 143° |
| 2026-05-07 06:25 | 13.67875 | 121.95458 | 26466 ft | 435 kts | 143° |
| 2026-05-07 06:25 | 13.65426 | 121.97302 | 26758 ft | 437 kts | 143° |
| 2026-05-07 06:25 | 13.62969 | 121.99154 | 27045 ft | 439 kts | 143° |
| 2026-05-07 06:26 | 13.60501 | 122.01019 | 27330 ft | 441 kts | 143° |
| 2026-05-07 06:26 | 13.58019 | 122.02895 | 27616 ft | 443 kts | 143° |
| 2026-05-07 06:26 | 13.55530 | 122.04773 | 27894 ft | 445 kts | 143° |
| 2026-05-07 06:26 | 13.53026 | 122.06659 | 28160 ft | 447 kts | 143° |
| 2026-05-07 06:27 | 13.50511 | 122.08550 | 28427 ft | 449 kts | 143° |
| 2026-05-07 06:27 | 13.47976 | 122.10450 | 28684 ft | 451 kts | 143° |
| 2026-05-07 06:27 | 13.45437 | 122.12354 | 28939 ft | 453 kts | 143° |
| 2026-05-07 06:27 | 13.42885 | 122.14268 | 29182 ft | 455 kts | 144° |
| 2026-05-07 06:28 | 13.40320 | 122.16196 | 29426 ft | 457 kts | 144° |
| 2026-05-07 06:28 | 13.37751 | 122.18129 | 29679 ft | 459 kts | 144° |
| 2026-05-07 06:28 | 13.35171 | 122.20070 | 29901 ft | 461 kts | 144° |
| 2026-05-07 06:28 | 13.32581 | 122.22019 | 30104 ft | 462 kts | 144° |
| 2026-05-07 06:29 | 13.29976 | 122.23981 | 30299 ft | 464 kts | 144° |
| 2026-05-07 06:29 | 13.27370 | 122.25938 | 30488 ft | 465 kts | 144° |
| 2026-05-07 06:29 | 13.24755 | 122.27897 | 30689 ft | 466 kts | 144° |
| 2026-05-07 06:29 | 13.22130 | 122.29860 | 30870 ft | 467 kts | 144° |
| 2026-05-07 06:30 | 13.19501 | 122.31827 | 31046 ft | 468 kts | 144° |
| 2026-05-07 06:30 | 13.16863 | 122.33804 | 31215 ft | 470 kts | 144° |
| 2026-05-07 06:30 | 13.14230 | 122.35781 | 31435 ft | 469 kts | 144° |
| 2026-05-07 06:30 | 13.11629 | 122.37729 | 31683 ft | 468 kts | 145° |
| 2026-05-07 06:31 | 13.08963 | 122.39725 | 31938 ft | 468 kts | 145° |
| 2026-05-07 06:31 | 13.06373 | 122.41668 | 32169 ft | 467 kts | 145° |
| 2026-05-07 06:31 | 13.03716 | 122.43665 | 32409 ft | 467 kts | 145° |
| 2026-05-07 06:31 | 13.01095 | 122.45632 | 32644 ft | 467 kts | 145° |
| 2026-05-07 06:32 | 12.98471 | 122.47596 | 32876 ft | 466 kts | 145° |
| 2026-05-07 06:32 | 12.95888 | 122.49527 | 33111 ft | 466 kts | 146° |
| 2026-05-07 06:32 | 12.93270 | 122.51484 | 33352 ft | 466 kts | 146° |
| 2026-05-07 06:32 | 12.90648 | 122.53443 | 33591 ft | 465 kts | 146° |
| 2026-05-07 06:33 | 12.88032 | 122.55395 | 33834 ft | 465 kts | 146° |
| 2026-05-07 06:33 | 12.85417 | 122.57346 | 34042 ft | 464 kts | 146° |
| 2026-05-07 06:33 | 12.82809 | 122.59294 | 34255 ft | 464 kts | 146° |
| 2026-05-07 06:33 | 12.80207 | 122.61238 | 34467 ft | 463 kts | 146° |
| 2026-05-07 06:34 | 12.77606 | 122.63183 | 34677 ft | 462 kts | 146° |
| 2026-05-07 06:34 | 12.75016 | 122.65122 | 34884 ft | 461 kts | 146° |
| 2026-05-07 06:34 | 12.72432 | 122.67058 | 35087 ft | 460 kts | 146° |
| 2026-05-07 06:34 | 12.69848 | 122.68988 | 35287 ft | 459 kts | 146° |
| 2026-05-07 06:35 | 12.67264 | 122.70913 | 35474 ft | 458 kts | 146° |
| 2026-05-07 06:35 | 12.64689 | 122.72832 | 35669 ft | 457 kts | 146° |
| 2026-05-07 06:35 | 12.62117 | 122.74751 | 35848 ft | 457 kts | 146° |
| 2026-05-07 06:35 | 12.59552 | 122.76664 | 36029 ft | 456 kts | 146° |
| 2026-05-07 06:36 | 12.56990 | 122.78575 | 36202 ft | 455 kts | 146° |
| 2026-05-07 06:36 | 12.54430 | 122.80483 | 36372 ft | 454 kts | 146° |
| 2026-05-07 06:36 | 12.51880 | 122.82382 | 36538 ft | 453 kts | 146° |
| 2026-05-07 06:36 | 12.49364 | 122.84255 | 36704 ft | 453 kts | 146° |
| 2026-05-07 06:37 | 12.46819 | 122.86150 | 36825 ft | 451 kts | 146° |
| 2026-05-07 06:37 | 12.44284 | 122.88039 | 36853 ft | 449 kts | 146° |
| 2026-05-07 06:37 | 12.39232 | 122.91799 | 36852 ft | 449 kts | 146° |
| 2026-05-07 06:38 | 12.34180 | 122.95555 | 36852 ft | 449 kts | 146° |
| 2026-05-07 06:38 | 12.29120 | 122.99312 | 36852 ft | 449 kts | 145° |
| 2026-05-07 06:39 | 12.24073 | 123.03062 | 36845 ft | 449 kts | 145° |
| 2026-05-07 06:39 | 12.19019 | 123.06813 | 36845 ft | 449 kts | 145° |
| 2026-05-07 06:40 | 12.13963 | 123.10570 | 36840 ft | 449 kts | 145° |
| 2026-05-07 06:40 | 12.08906 | 123.14325 | 36839 ft | 449 kts | 145° |
| 2026-05-07 06:41 | 12.03848 | 123.18077 | 36837 ft | 449 kts | 145° |
| 2026-05-07 06:41 | 11.98798 | 123.21817 | 36837 ft | 449 kts | 145° |
| 2026-05-07 06:42 | 11.93739 | 123.25558 | 36840 ft | 449 kts | 145° |
| 2026-05-07 06:42 | 11.88682 | 123.29299 | 36842 ft | 449 kts | 145° |
| 2026-05-07 06:43 | 11.83632 | 123.33047 | 36846 ft | 449 kts | 145° |
| 2026-05-07 06:43 | 11.78621 | 123.36762 | 36854 ft | 448 kts | 145° |
| 2026-05-07 06:44 | 11.73563 | 123.40503 | 36576 ft | 450 kts | 145° |
| 2026-05-07 06:44 | 11.71027 | 123.42376 | 36330 ft | 451 kts | 145° |
| 2026-05-07 06:44 | 11.68480 | 123.44258 | 36087 ft | 453 kts | 145° |
| 2026-05-07 06:45 | 11.65929 | 123.46146 | 35692 ft | 454 kts | 145° |
| 2026-05-07 06:45 | 11.63357 | 123.48047 | 34870 ft | 458 kts | 145° |
| 2026-05-07 06:45 | 11.60788 | 123.49943 | 34329 ft | 454 kts | 146° |
| 2026-05-07 06:45 | 11.58235 | 123.51829 | 33749 ft | 452 kts | 146° |
| 2026-05-07 06:46 | 11.55694 | 123.53703 | 33145 ft | 449 kts | 145° |
| 2026-05-07 06:46 | 11.53169 | 123.55567 | 32582 ft | 446 kts | 145° |
| 2026-05-07 06:46 | 11.50663 | 123.57415 | 32016 ft | 443 kts | 145° |
| 2026-05-07 06:46 | 11.48176 | 123.59248 | 31462 ft | 440 kts | 145° |
| 2026-05-07 06:47 | 11.45703 | 123.61072 | 30920 ft | 438 kts | 144° |
| 2026-05-07 06:47 | 11.43243 | 123.62885 | 30378 ft | 436 kts | 144° |
| 2026-05-07 06:47 | 11.40790 | 123.64695 | 29817 ft | 434 kts | 144° |
| 2026-05-07 06:47 | 11.38352 | 123.66497 | 29245 ft | 431 kts | 143° |
| 2026-05-07 06:48 | 11.35953 | 123.68273 | 28732 ft | 427 kts | 143° |
| 2026-05-07 06:48 | 11.33549 | 123.70046 | 28219 ft | 423 kts | 143° |
| 2026-05-07 06:48 | 11.31174 | 123.71793 | 27716 ft | 418 kts | 143° |
| 2026-05-07 06:48 | 11.28824 | 123.73522 | 27235 ft | 414 kts | 143° |
| 2026-05-07 06:49 | 11.26524 | 123.75210 | 26763 ft | 411 kts | 143° |
| 2026-05-07 06:49 | 11.24189 | 123.76929 | 26295 ft | 407 kts | 142° |
| 2026-05-07 06:49 | 11.21936 | 123.78589 | 25843 ft | 403 kts | 142° |
| 2026-05-07 06:49 | 11.19674 | 123.80254 | 25373 ft | 400 kts | 142° |
| 2026-05-07 06:50 | 11.17401 | 123.81878 | 24910 ft | 398 kts | 148° |
| 2026-05-07 06:50 | 11.14873 | 123.83028 | 24405 ft | 399 kts | 162° |
| 2026-05-07 06:50 | 11.12140 | 123.83499 | 23911 ft | 400 kts | 176° |
| 2026-05-07 06:50 | 11.09362 | 123.83266 | 23377 ft | 403 kts | 191° |
| 2026-05-07 06:51 | 11.06653 | 123.82524 | 22792 ft | 403 kts | 193° |
| 2026-05-07 06:51 | 11.03963 | 123.81764 | 22267 ft | 400 kts | 193° |
| 2026-05-07 06:51 | 11.01286 | 123.81013 | 21742 ft | 398 kts | 193° |
| 2026-05-07 06:51 | 10.99519 | 123.80520 | 21392 ft | 397 kts | 193° |
| 2026-05-07 06:52 | 10.95969 | 123.79527 | 20701 ft | 394 kts | 193° |
| 2026-05-07 06:52 | 10.93325 | 123.78788 | 20177 ft | 393 kts | 193° |
| 2026-05-07 06:52 | 10.90692 | 123.78054 | 19663 ft | 392 kts | 193° |
| 2026-05-07 06:52 | 10.88953 | 123.77570 | 19322 ft | 391 kts | 193° |
| 2026-05-07 06:53 | 10.85453 | 123.76596 | 18729 ft | 387 kts | 193° |
| 2026-05-07 06:53 | 10.83727 | 123.76116 | 18347 ft | 388 kts | 193° |
| 2026-05-07 06:53 | 10.81169 | 123.75403 | 17775 ft | 375 kts | 193° |
| 2026-05-07 06:53 | 10.78682 | 123.74706 | 17302 ft | 368 kts | 193° |
| 2026-05-07 06:54 | 10.76220 | 123.74016 | 16841 ft | 366 kts | 192° |
| 2026-05-07 06:54 | 10.73772 | 123.73331 | 16402 ft | 364 kts | 192° |
| 2026-05-07 06:54 | 10.71328 | 123.72651 | 15943 ft | 362 kts | 192° |
| 2026-05-07 06:54 | 10.68900 | 123.71980 | 15502 ft | 361 kts | 192° |
| 2026-05-07 06:55 | 10.66484 | 123.71311 | 15057 ft | 359 kts | 192° |
| 2026-05-07 06:55 | 10.64078 | 123.70640 | 14618 ft | 358 kts | 192° |
| 2026-05-07 06:55 | 10.61684 | 123.69970 | 14176 ft | 357 kts | 192° |
| 2026-05-07 06:55 | 10.59294 | 123.69302 | 13746 ft | 355 kts | 192° |
| 2026-05-07 06:56 | 10.56913 | 123.68637 | 13257 ft | 354 kts | 192° |
| 2026-05-07 06:56 | 10.54544 | 123.67976 | 12809 ft | 351 kts | 192° |
| 2026-05-07 06:56 | 10.52197 | 123.67323 | 12370 ft | 348 kts | 192° |
| 2026-05-07 06:56 | 10.49872 | 123.66676 | 11926 ft | 345 kts | 192° |
| 2026-05-07 06:57 | 10.47562 | 123.66035 | 11477 ft | 343 kts | 192° |
| 2026-05-07 06:57 | 10.45265 | 123.65397 | 11034 ft | 341 kts | 192° |
| 2026-05-07 06:57 | 10.42986 | 123.64763 | 10606 ft | 338 kts | 192° |
| 2026-05-07 06:57 | 10.40745 | 123.64140 | 10277 ft | 332 kts | 192° |
| 2026-05-07 06:58 | 10.38536 | 123.63523 | 10010 ft | 324 kts | 191° |
| 2026-05-07 06:58 | 10.36372 | 123.63204 | 9763 ft | 307 kts | 174° |
| 2026-05-07 06:58 | 10.34368 | 123.63558 | 9310 ft | 288 kts | 156° |
| 2026-05-07 06:58 | 10.32635 | 123.64471 | 8913 ft | 269 kts | 140° |
| 2026-05-07 06:59 | 10.31309 | 123.65688 | 8554 ft | 253 kts | 131° |
| 2026-05-07 06:59 | 10.30097 | 123.66924 | 8220 ft | 241 kts | 131° |
| 2026-05-07 06:59 | 10.28934 | 123.68103 | 7886 ft | 234 kts | 131° |
| 2026-05-07 06:59 | 10.27792 | 123.69261 | 7568 ft | 233 kts | 131° |
| 2026-05-07 07:00 | 10.26643 | 123.70428 | 7239 ft | 232 kts | 131° |
| 2026-05-07 07:00 | 10.25504 | 123.71586 | 6911 ft | 230 kts | 131° |
| 2026-05-07 07:00 | 10.24381 | 123.72728 | 6591 ft | 227 kts | 131° |
| 2026-05-07 07:00 | 10.23286 | 123.73838 | 6287 ft | 218 kts | 131° |
| 2026-05-07 07:01 | 10.22244 | 123.74889 | 6001 ft | 205 kts | 131° |
| 2026-05-07 07:01 | 10.21264 | 123.75881 | 5717 ft | 194 kts | 131° |
| 2026-05-07 07:01 | 10.20335 | 123.76828 | 5429 ft | 184 kts | 129° |
| 2026-05-07 07:01 | 10.19559 | 123.77807 | 5168 ft | 173 kts | 120° |
| 2026-05-07 07:02 | 10.18908 | 123.78795 | 4890 ft | 167 kts | 128° |
| 2026-05-07 07:02 | 10.18056 | 123.79603 | 4605 ft | 169 kts | 135° |
| 2026-05-07 07:02 | 10.17146 | 123.80370 | 4279 ft | 170 kts | 136° |
| 2026-05-07 07:02 | 10.16350 | 123.81221 | 3969 ft | 164 kts | 115° |
| 2026-05-07 07:03 | 10.16095 | 123.82302 | 3766 ft | 153 kts | 88° |
| 2026-05-07 07:03 | 10.16329 | 123.83291 | 3647 ft | 141 kts | 65° |
| 2026-05-07 07:03 | 10.16932 | 123.84075 | 3470 ft | 142 kts | 47° |
| 2026-05-07 07:03 | 10.17627 | 123.84769 | 3313 ft | 139 kts | 49° |
| 2026-05-07 07:04 | 10.18315 | 123.85460 | 3139 ft | 139 kts | 49° |
| 2026-05-07 07:04 | 10.18999 | 123.86150 | 2955 ft | 140 kts | 48° |
| 2026-05-07 07:04 | 10.19690 | 123.86845 | 2775 ft | 139 kts | 49° |
| 2026-05-07 07:04 | 10.20368 | 123.87523 | 2594 ft | 139 kts | 46° |
| 2026-05-07 07:05 | 10.21057 | 123.88210 | 2412 ft | 139 kts | 45° |
| 2026-05-07 07:05 | 10.21751 | 123.88901 | 2220 ft | 139 kts | 47° |
| 2026-05-07 07:05 | 10.22438 | 123.89590 | 2038 ft | 140 kts | 46° |
| 2026-05-07 07:05 | 10.23127 | 123.90286 | 1843 ft | 141 kts | 47° |
| 2026-05-07 07:06 | 10.23812 | 123.90979 | 1668 ft | 138 kts | 45° |
| 2026-05-07 07:06 | 10.24495 | 123.91666 | 1477 ft | 137 kts | 47° |
| 2026-05-07 07:06 | 10.25178 | 123.92350 | 1297 ft | 138 kts | 46° |
| 2026-05-07 07:06 | 10.25860 | 123.93035 | 1117 ft | 137 kts | 46° |
| 2026-05-07 07:07 | 10.26524 | 123.93723 | 1004 ft | 139 kts | 46° |
| 2026-05-07 07:07 | 10.27202 | 123.94406 | 868 ft | 136 kts | 45° |
| 2026-05-07 07:07 | 10.27889 | 123.95085 | 658 ft | 140 kts | 45° |
| 2026-05-07 07:07 | 10.28572 | 123.95759 | 453 ft | 137 kts | 42° |
| 2026-05-07 07:08 | 10.29251 | 123.96430 | 239 ft | 137 kts | 45° |
| 2026-05-07 07:08 | 10.29917 | 123.97103 | 64 ft | 135 kts | 44° |
| 2026-05-07 07:08 | 10.30545 | 123.97735 | 38 ft | 116 kts | 44° |
| 2026-05-07 07:08 | 10.30909 | 123.98101 | 36 ft | 31 kts | 42° |
| 2026-05-07 07:09 | 10.31059 | 123.98244 | 37 ft | 29 kts | 33° |
| 2026-05-07 07:09 | 10.31215 | 123.98328 | 39 ft | 20 kts | 20° |
| 2026-05-07 07:09 | 10.31339 | 123.98351 | 39 ft | 17 kts | 350° |
| 2026-05-07 07:09 | 10.31413 | 123.98298 | 40 ft | 12 kts | 317° |
| 2026-05-07 07:10 | 10.31473 | 123.98241 | 40 ft | 13 kts | 316° |
| 2026-05-07 07:10 | 10.31538 | 123.98174 | 37 ft | 14 kts | 312° |
| 2026-05-07 07:10 | 10.31552 | 123.98091 | 37 ft | 12 kts | 226° |
| 2026-05-07 07:10 | 10.31513 | 123.98030 | 39 ft | 8 kts | 287° |
| 2026-05-07 07:11 | 10.31545 | 123.97990 | 39 ft | 6 kts | 314° |
| 2026-05-07 07:11 | 10.31559 | 123.97976 | 39 ft | 1 kts | 315° |
| 2026-05-07 07:11 | 10.31561 | 123.97974 | 39 ft | 0 kts | 315° |